createdAt,value
2023-11-01T00:00:32.966Z,35.00
2023-11-01T00:01:32.975Z,36.00
2023-11-01T00:02:32.990Z,33.20
2023-11-01T00:03:33.051Z,29.70
2023-11-01T00:04:32.934Z,28.30
2023-11-01T00:05:32.952Z,29.70
2023-11-01T00:06:32.889Z,27.60
2023-11-01T00:07:32.894Z,29.40
2023-11-01T00:08:33.040Z,29.20
2023-11-01T00:09:32.847Z,30.10
2023-11-01T00:10:32.872Z,31.30
2023-11-01T00:11:32.853Z,31.10
2023-11-01T00:12:32.832Z,32.80
2023-11-01T00:13:32.811Z,29.70
2023-11-01T00:14:32.892Z,33.20
2023-11-01T00:15:32.809Z,33.20
2023-11-01T00:16:32.804Z,32.60
2023-11-01T00:17:32.827Z,31.30
2023-11-01T00:18:32.800Z,32.10
2023-11-01T00:19:32.758Z,29.70
2023-11-01T00:20:32.781Z,32.00
2023-11-01T00:21:32.759Z,35.00
2023-11-01T00:22:32.753Z,35.20
2023-11-01T00:23:32.715Z,34.60
2023-11-01T00:24:32.719Z,36.30
2023-11-01T00:25:32.689Z,37.70
2023-11-01T00:26:32.724Z,34.40
2023-11-01T00:27:32.688Z,34.50
2023-11-01T00:28:32.683Z,33.90
2023-11-01T00:29:32.716Z,34.80
2023-11-01T00:30:32.629Z,34.60
2023-11-01T00:31:32.627Z,32.60
2023-11-01T00:32:32.632Z,30.60
2023-11-01T00:33:32.674Z,29.60
2023-11-01T00:34:32.598Z,27.90
2023-11-01T00:35:32.616Z,27.50
2023-11-01T00:36:32.589Z,30.90
2023-11-01T00:37:32.559Z,33.70
2023-11-01T00:38:32.623Z,33.30
2023-11-01T00:39:32.544Z,33.30
2023-11-01T00:40:32.530Z,34.70
2023-11-01T00:41:32.538Z,34.60
2023-11-01T00:42:32.561Z,33.30
2023-11-01T00:43:32.533Z,32.40
2023-11-01T00:44:38.520Z,30.40
2023-11-01T00:45:32.472Z,26.50
2023-11-01T00:46:38.505Z,28.10
2023-11-01T00:47:38.502Z,30.10
2023-11-01T00:48:38.449Z,32.70
2023-11-01T00:49:32.428Z,35.40
2023-11-01T00:50:32.424Z,35.30
2023-11-01T00:51:32.430Z,29.50
2023-11-01T00:52:32.444Z,28.00
2023-11-01T00:53:32.409Z,30.10
2023-11-01T00:54:32.400Z,28.40
2023-11-01T00:55:32.375Z,28.00
2023-11-01T00:56:32.403Z,29.10
2023-11-01T00:57:32.386Z,26.40
2023-11-01T00:58:32.349Z,26.20
2023-11-01T00:59:32.349Z,28.40
2023-11-01T01:00:32.325Z,29.00
2023-11-01T01:01:32.349Z,25.00
2023-11-01T01:02:32.408Z,23.90
2023-11-01T01:03:32.414Z,25.10
2023-11-01T01:04:32.288Z,27.00
2023-11-01T01:05:32.329Z,29.10
2023-11-01T01:06:32.298Z,29.90
2023-11-01T01:07:32.264Z,28.20
2023-11-01T01:08:32.266Z,27.60
2023-11-01T01:09:32.239Z,29.30
2023-11-01T01:10:32.264Z,28.20
2023-11-01T01:11:32.237Z,23.70
2023-11-01T01:12:32.212Z,26.90
2023-11-01T01:13:32.200Z,28.20
2023-11-01T01:14:32.226Z,29.90
2023-11-01T01:15:32.201Z,30.70
2023-11-01T01:16:32.636Z,30.00
2023-11-01T01:17:32.217Z,28.30
2023-11-01T01:18:32.161Z,27.40
2023-11-01T01:19:32.150Z,27.70
2023-11-01T01:20:32.204Z,29.80
2023-11-01T01:21:32.146Z,33.10
2023-11-01T01:22:32.120Z,31.20
2023-11-01T01:23:32.148Z,25.30
2023-11-01T01:24:32.117Z,24.20
2023-11-01T01:25:32.089Z,22.70
2023-11-01T01:26:32.116Z,27.20
2023-11-01T01:27:32.038Z,33.90
2023-11-01T01:28:32.059Z,37.50
2023-11-01T01:29:32.133Z,35.00
2023-11-01T01:30:32.021Z,34.40
2023-11-01T01:31:32.142Z,38.30
2023-11-01T01:32:32.064Z,40.50
2023-11-01T01:33:32.002Z,39.00
2023-11-01T01:34:32.013Z,39.30
2023-11-01T01:35:38.004Z,40.30
2023-11-01T01:36:31.949Z,41.00
2023-11-01T01:37:31.953Z,41.00
2023-11-01T01:38:32.016Z,36.90
2023-11-01T01:39:31.928Z,33.50
2023-11-01T01:40:31.951Z,32.10
2023-11-01T01:41:31.972Z,32.20
2023-11-01T01:42:31.902Z,31.10
2023-11-01T01:43:32.002Z,31.50
2023-11-01T01:44:31.928Z,34.40
2023-11-01T01:45:31.885Z,34.60
2023-11-01T01:46:31.855Z,30.50
2023-11-01T01:47:31.982Z,32.10
2023-11-01T01:48:31.852Z,30.70
2023-11-01T01:49:37.154Z,29.40
2023-11-01T01:50:31.865Z,30.90
2023-11-01T01:51:31.803Z,29.00
2023-11-01T01:52:31.826Z,26.70
2023-11-01T01:53:31.796Z,25.20
2023-11-01T01:54:31.784Z,27.70
2023-11-01T01:55:31.766Z,29.50
2023-11-01T01:56:31.799Z,30.20
2023-11-01T01:57:31.763Z,31.00
2023-11-01T01:58:31.740Z,32.10
2023-11-01T01:59:31.741Z,34.50
2023-11-01T02:00:31.707Z,33.50
2023-11-01T02:01:38.943Z,27.20
2023-11-01T02:02:31.925Z,27.40
2023-11-01T02:03:31.790Z,29.90
2023-11-01T02:04:31.658Z,32.70
2023-11-01T02:05:31.686Z,27.80
2023-11-01T02:06:31.674Z,27.70
2023-11-01T02:07:31.646Z,27.30
2023-11-01T02:08:31.687Z,25.50
2023-11-01T02:09:31.622Z,24.90
2023-11-01T02:10:31.614Z,26.80
2023-11-01T02:11:31.644Z,25.10
2023-11-01T02:12:31.581Z,24.60
2023-11-01T02:13:31.582Z,29.80
2023-11-01T02:14:31.569Z,32.90
2023-11-01T02:15:31.599Z,29.60
2023-11-01T02:16:31.569Z,27.20
2023-11-01T02:17:31.569Z,27.90
2023-11-01T02:18:31.569Z,27.00
2023-11-01T02:19:31.526Z,22.60
2023-11-01T02:20:31.563Z,23.30
2023-11-01T02:21:31.506Z,23.20
2023-11-01T02:22:31.479Z,26.20
2023-11-01T02:23:31.604Z,26.10
2023-11-01T02:24:31.457Z,25.70
2023-11-01T02:25:31.473Z,27.40
2023-11-01T02:26:31.546Z,25.80
2023-11-01T02:27:31.428Z,21.70
2023-11-01T02:28:31.472Z,18.90
2023-11-01T02:29:31.459Z,19.50
2023-11-01T02:30:31.445Z,23.30
2023-11-01T02:31:31.422Z,26.30
2023-11-01T02:32:31.470Z,28.10
2023-11-01T02:33:31.369Z,24.40
2023-11-01T02:34:31.381Z,23.00
2023-11-01T02:35:31.393Z,30.60
2023-11-01T02:36:31.353Z,28.70
2023-11-01T02:37:31.337Z,26.90
2023-11-01T02:38:31.338Z,28.50
2023-11-01T02:39:31.350Z,33.70
2023-11-01T02:40:31.296Z,38.00
2023-11-01T02:41:31.315Z,36.50
2023-11-01T02:42:31.279Z,32.50
2023-11-01T02:43:31.309Z,30.00
2023-11-01T02:44:31.300Z,33.20
2023-11-01T02:45:31.252Z,32.40
2023-11-01T02:46:31.229Z,31.80
2023-11-01T02:47:31.287Z,28.20
2023-11-01T02:48:31.282Z,24.40
2023-11-01T02:49:31.212Z,23.50
2023-11-01T02:50:31.288Z,22.70
2023-11-01T02:51:31.191Z,25.20
2023-11-01T02:52:31.186Z,26.50
2023-11-01T02:53:31.250Z,27.00
2023-11-01T02:54:31.158Z,27.20
2023-11-01T02:55:31.141Z,31.00
2023-11-01T02:56:31.150Z,28.70
2023-11-01T02:57:31.144Z,32.20
2023-11-01T02:58:31.164Z,33.00
2023-11-01T02:59:31.132Z,31.60
2023-11-01T03:00:31.090Z,31.60
2023-11-01T03:01:31.097Z,31.10
2023-11-01T03:02:31.150Z,32.30
2023-11-01T03:03:31.104Z,26.50
2023-11-01T03:04:31.047Z,26.80
2023-11-01T03:05:31.088Z,28.00
2023-11-01T03:06:31.101Z,28.10
2023-11-01T03:07:31.105Z,25.60
2023-11-01T03:08:31.050Z,27.60
2023-11-01T03:09:31.011Z,26.90
2023-11-01T03:10:30.994Z,24.20
2023-11-01T03:11:31.000Z,27.50
2023-11-01T03:12:30.999Z,28.30
2023-11-01T03:13:30.960Z,30.30
2023-11-01T03:14:30.965Z,32.90
2023-11-01T03:15:30.952Z,29.60
2023-11-01T03:16:30.998Z,27.60
2023-11-01T03:17:31.051Z,24.70
2023-11-01T03:18:30.910Z,25.70
2023-11-01T03:19:30.896Z,29.50
2023-11-01T03:20:30.946Z,29.80
2023-11-01T03:21:30.912Z,27.70
2023-11-01T03:22:30.888Z,26.60
2023-11-01T03:23:30.885Z,29.60
2023-11-01T03:24:30.883Z,29.80
2023-11-01T03:25:30.846Z,31.10
2023-11-01T03:26:30.858Z,34.50
2023-11-01T03:27:30.829Z,33.50
2023-11-01T03:28:30.804Z,34.50
2023-11-01T03:29:30.829Z,32.30
2023-11-01T03:30:30.820Z,31.50
2023-11-01T03:31:30.840Z,33.80
2023-11-01T03:32:30.820Z,29.40
2023-11-01T03:33:30.773Z,27.70
2023-11-01T03:34:30.739Z,29.50
2023-11-01T03:35:30.796Z,33.60
2023-11-01T03:36:30.725Z,32.50
2023-11-01T03:37:30.712Z,32.80
2023-11-01T03:38:30.730Z,35.70
2023-11-01T03:39:30.713Z,36.10
2023-11-01T03:40:30.700Z,37.80
2023-11-01T03:41:30.924Z,37.40
2023-11-01T03:42:32.292Z,34.80
2023-11-01T03:43:30.777Z,33.30
2023-11-01T03:44:30.737Z,32.90
2023-11-01T03:45:30.704Z,35.90
2023-11-01T03:46:30.712Z,34.30
2023-11-01T03:47:30.851Z,31.80
2023-11-01T03:48:30.712Z,34.40
2023-11-01T03:49:30.760Z,34.40
2023-11-01T03:50:30.660Z,30.30
2023-11-01T03:51:30.571Z,32.70
2023-11-01T03:52:30.901Z,35.20
2023-11-01T03:53:31.175Z,30.60
2023-11-01T03:54:30.857Z,32.00
2023-11-01T03:55:30.656Z,33.70
2023-11-01T03:56:31.746Z,30.50
2023-11-01T03:57:30.806Z,36.10
2023-11-01T03:58:30.890Z,37.80
2023-11-01T03:59:30.834Z,34.70
2023-11-01T04:00:30.544Z,38.70
2023-11-01T04:01:30.504Z,40.10
2023-11-01T04:02:36.596Z,36.10
2023-11-01T04:03:30.777Z,37.80
2023-11-01T04:04:30.506Z,37.40
2023-11-01T04:05:30.450Z,35.00
2023-11-01T04:06:30.443Z,36.50
2023-11-01T04:07:30.413Z,39.90
2023-11-01T04:08:30.469Z,38.60
2023-11-01T04:09:30.447Z,38.60
2023-11-01T04:10:30.491Z,37.60
2023-11-01T04:11:30.378Z,35.80
2023-11-01T04:12:30.402Z,38.00
2023-11-01T04:13:30.372Z,43.20
2023-11-01T04:14:30.383Z,40.80
2023-11-01T04:15:30.324Z,40.30
2023-11-01T04:16:30.346Z,42.90
2023-11-01T04:17:30.355Z,41.40
2023-11-01T04:18:30.332Z,44.70
2023-11-01T04:19:30.274Z,46.60
2023-11-01T04:20:30.322Z,49.50
2023-11-01T04:21:30.344Z,52.10
2023-11-01T04:22:30.268Z,51.50
2023-11-01T04:23:30.261Z,49.30
2023-11-01T04:24:30.236Z,47.00
2023-11-01T04:25:30.243Z,49.60
2023-11-01T04:26:30.258Z,52.50
2023-11-01T04:27:30.171Z,50.40
2023-11-01T04:28:30.207Z,52.90
2023-11-01T04:29:30.194Z,54.70
2023-11-01T04:30:30.195Z,55.80
2023-11-01T04:31:30.213Z,57.90
2023-11-01T04:32:30.271Z,57.30
2023-11-01T04:33:30.185Z,53.70
2023-11-01T04:34:30.122Z,52.20
2023-11-01T04:35:30.172Z,54.80
2023-11-01T04:36:30.148Z,51.00
2023-11-01T04:37:30.083Z,51.50
2023-11-01T04:38:30.102Z,52.80
2023-11-01T04:39:30.062Z,54.70
2023-11-01T04:40:30.081Z,54.40
2023-11-01T04:41:30.086Z,48.30
2023-11-01T04:42:30.038Z,50.70
2023-11-01T04:43:30.024Z,52.50
2023-11-01T04:44:30.047Z,52.90
2023-11-01T04:45:30.030Z,54.20
2023-11-01T04:46:30.063Z,50.40
2023-11-01T04:47:30.072Z,50.40
2023-11-01T04:48:30.058Z,53.70
2023-11-01T04:49:30.004Z,53.90
2023-11-01T04:50:30.030Z,51.80
2023-11-01T04:51:29.962Z,49.00
2023-11-01T04:52:29.933Z,48.60
2023-11-01T04:53:29.966Z,51.90
2023-11-01T04:54:29.932Z,52.10
2023-11-01T04:55:29.919Z,54.90
2023-11-01T04:56:29.953Z,56.90
2023-11-01T04:57:29.928Z,54.30
2023-11-01T04:58:29.874Z,52.90
2023-11-01T04:59:29.896Z,60.70
2023-11-01T05:00:29.849Z,56.80
2023-11-01T05:01:29.846Z,56.90
2023-11-01T05:02:29.944Z,62.90
2023-11-01T05:03:29.872Z,66.00
2023-11-01T05:04:29.835Z,64.30
2023-11-01T05:05:29.807Z,69.80
2023-11-01T05:06:29.779Z,60.90
2023-11-01T05:07:29.795Z,63.10
2023-11-01T05:08:29.829Z,66.30
2023-11-01T05:09:29.791Z,69.50
2023-11-01T05:10:29.753Z,65.10
2023-11-01T05:11:29.754Z,69.00
2023-11-01T05:12:29.742Z,67.20
2023-11-01T05:13:29.729Z,68.70
2023-11-01T05:14:29.718Z,63.40
2023-11-01T05:15:29.712Z,67.70
2023-11-01T05:16:29.725Z,68.30
2023-11-01T05:17:29.704Z,65.00
2023-11-01T05:18:29.793Z,72.60
2023-11-01T05:19:29.668Z,79.10
2023-11-01T05:20:29.648Z,75.50
2023-11-01T05:21:29.624Z,80.80
2023-11-01T05:22:29.645Z,83.70
2023-11-01T05:23:29.652Z,86.80
2023-11-01T05:24:29.601Z,91.30
2023-11-01T05:25:30.809Z,91.50
2023-11-01T05:26:29.601Z,94.70
2023-11-01T05:27:29.635Z,95.70
2023-11-01T05:28:29.575Z,93.00
2023-11-01T05:29:29.554Z,92.30
2023-11-01T05:30:29.536Z,94.90
2023-11-01T05:31:29.536Z,91.50
2023-11-01T05:32:29.589Z,91.30
2023-11-01T05:33:29.525Z,95.60
2023-11-01T05:34:29.546Z,94.70
2023-11-01T05:35:29.512Z,96.60
2023-11-01T05:36:29.507Z,93.50
2023-11-01T05:37:29.452Z,91.30
2023-11-01T05:38:29.496Z,92.00
2023-11-01T05:39:29.477Z,92.00
2023-11-01T05:40:29.448Z,97.20
2023-11-01T05:41:29.445Z,97.30
2023-11-01T05:42:29.406Z,95.80
2023-11-01T05:43:29.430Z,94.90
2023-11-01T05:44:29.455Z,94.60
2023-11-01T05:45:29.375Z,94.30
2023-11-01T05:46:29.400Z,95.30
2023-11-01T05:47:29.378Z,93.90
2023-11-01T05:48:29.400Z,94.90
2023-11-01T05:49:29.349Z,98.00
2023-11-01T05:50:29.373Z,99.90
2023-11-01T05:51:29.347Z,97.30
2023-11-01T05:52:29.318Z,92.50
2023-11-01T05:53:29.326Z,94.40
2023-11-01T05:54:29.298Z,97.50
2023-11-01T05:55:43.055Z,95.80
2023-11-01T05:56:29.329Z,100.30
2023-11-01T05:57:29.247Z,104.20
2023-11-01T05:58:29.265Z,105.00
2023-11-01T05:59:29.301Z,105.50
2023-11-01T06:00:29.294Z,98.80
2023-11-01T06:01:29.224Z,99.50
2023-11-01T06:02:29.318Z,102.50
2023-11-01T06:03:29.323Z,103.10
2023-11-01T06:04:29.188Z,102.10
2023-11-01T06:05:29.166Z,106.30
2023-11-01T06:06:29.099Z,105.40
2023-11-01T06:07:29.100Z,104.80
2023-11-01T06:08:29.181Z,107.80
2023-11-01T06:09:29.800Z,106.70
2023-11-01T06:10:29.083Z,108.00
2023-11-01T06:11:29.134Z,109.40
2023-11-01T06:12:29.038Z,106.80
2023-11-01T06:13:29.032Z,108.00
2023-11-01T06:14:29.049Z,111.30
2023-11-01T06:15:29.080Z,110.40
2023-11-01T06:16:29.008Z,107.60
2023-11-01T06:17:29.034Z,108.60
2023-11-01T06:18:29.097Z,106.50
2023-11-01T06:19:28.988Z,110.40
2023-11-01T06:20:29.002Z,107.50
2023-11-01T06:21:28.955Z,107.40
2023-11-01T06:22:28.929Z,107.10
2023-11-01T06:23:29.032Z,108.20
2023-11-01T06:24:28.931Z,107.90
2023-11-01T06:25:28.894Z,110.60
2023-11-01T06:26:28.895Z,109.80
2023-11-01T06:27:28.899Z,111.80
2023-11-01T06:28:28.916Z,110.70
2023-11-01T06:29:28.887Z,112.60
2023-11-01T06:30:28.853Z,112.30
2023-11-01T06:31:28.833Z,113.60
2023-11-01T06:32:28.878Z,113.80
2023-11-01T06:33:28.943Z,113.90
2023-11-01T06:34:28.880Z,117.10
2023-11-01T06:35:28.804Z,115.10
2023-11-01T06:36:28.794Z,116.60
2023-11-01T06:37:28.800Z,121.90
2023-11-01T06:38:28.851Z,118.90
2023-11-01T06:39:28.748Z,122.30
2023-11-01T06:40:28.760Z,125.50
2023-11-01T06:41:28.810Z,121.10
2023-11-01T06:42:28.754Z,122.50
2023-11-01T06:43:28.727Z,121.00
2023-11-01T06:44:28.725Z,125.20
2023-11-01T06:45:28.699Z,121.60
2023-11-01T06:46:28.707Z,123.10
2023-11-01T06:47:28.709Z,125.60
2023-11-01T06:48:28.708Z,126.30
2023-11-01T06:49:31.732Z,123.90
2023-11-01T06:50:28.670Z,124.30
2023-11-01T06:51:28.659Z,124.60
2023-11-01T06:52:28.668Z,123.10
2023-11-01T06:53:28.660Z,124.40
2023-11-01T06:54:28.600Z,122.80
2023-11-01T06:55:28.603Z,121.30
2023-11-01T06:56:28.638Z,120.30
2023-11-01T06:57:28.680Z,123.00
2023-11-01T06:58:28.573Z,123.80
2023-11-01T06:59:28.619Z,120.30
2023-11-01T07:00:34.532Z,120.60
2023-11-01T07:01:28.548Z,120.20
2023-11-01T07:02:28.547Z,121.80
2023-11-01T07:03:28.565Z,119.50
2023-11-01T07:04:28.530Z,118.30
2023-11-01T07:05:28.602Z,119.30
2023-11-01T07:06:28.518Z,120.70
2023-11-01T07:07:28.480Z,119.20
2023-11-01T07:08:28.533Z,121.80
2023-11-01T07:09:28.462Z,120.50
2023-11-01T07:10:28.496Z,118.00
2023-11-01T07:11:28.470Z,121.70
2023-11-01T07:12:28.426Z,122.40
2023-11-01T07:13:29.139Z,119.40
2023-11-01T07:14:28.409Z,119.40
2023-11-01T07:15:28.445Z,113.80
2023-11-01T07:16:34.392Z,114.40
2023-11-01T07:17:34.933Z,115.40
2023-11-01T07:18:28.386Z,115.20
2023-11-01T07:19:28.527Z,113.50
2023-11-01T07:20:28.466Z,111.40
2023-11-01T07:21:28.510Z,111.20
2023-11-01T07:22:28.429Z,112.50
2023-11-01T07:23:28.663Z,110.10
2023-11-01T07:24:28.305Z,110.60
2023-11-01T07:25:28.294Z,109.40
2023-11-01T07:26:28.271Z,107.70
2023-11-01T07:27:28.271Z,108.50
2023-11-01T07:28:28.274Z,109.40
2023-11-01T07:29:28.326Z,109.20
2023-11-01T07:30:28.244Z,109.30
2023-11-01T07:31:28.233Z,107.20
2023-11-01T07:32:28.278Z,104.90
2023-11-01T07:33:28.267Z,106.40
2023-11-01T07:34:28.220Z,103.00
2023-11-01T07:35:28.236Z,103.30
2023-11-01T07:36:28.170Z,108.70
2023-11-01T07:37:28.176Z,107.10
2023-11-01T07:38:28.204Z,105.50
2023-11-01T07:39:28.179Z,104.90
2023-11-01T07:40:28.131Z,98.60
2023-11-01T07:41:28.139Z,102.60
2023-11-01T07:42:28.138Z,103.40
2023-11-01T07:43:28.139Z,106.30
2023-11-01T07:44:28.177Z,106.70
2023-11-01T07:45:28.083Z,109.30
2023-11-01T07:46:28.075Z,108.20
2023-11-01T07:47:28.105Z,110.50
2023-11-01T07:48:28.167Z,106.80
2023-11-01T07:49:28.049Z,103.90
2023-11-01T07:50:28.049Z,103.90
2023-11-01T07:51:28.126Z,102.60
2023-11-01T07:52:28.026Z,100.30
2023-11-01T07:53:28.055Z,102.50
2023-11-01T07:54:27.987Z,104.00
2023-11-01T07:55:28.001Z,103.40
2023-11-01T07:56:28.007Z,103.60
2023-11-01T07:57:27.996Z,106.00
2023-11-01T07:58:27.973Z,106.00
2023-11-01T07:59:27.969Z,104.60
2023-11-01T08:00:27.920Z,106.50
2023-11-01T08:01:27.976Z,106.40
2023-11-01T08:02:28.129Z,100.90
2023-11-01T08:03:28.279Z,100.00
2023-11-01T08:04:27.964Z,103.40
2023-11-01T08:05:27.979Z,102.10
2023-11-01T08:06:27.907Z,100.30
2023-11-01T08:07:27.892Z,99.00
2023-11-01T08:08:27.854Z,101.40
2023-11-01T08:09:27.843Z,98.30
2023-11-01T08:10:27.858Z,98.60
2023-11-01T08:11:27.864Z,98.40
2023-11-01T08:12:27.806Z,98.50
2023-11-01T08:13:27.811Z,99.40
2023-11-01T08:14:27.806Z,101.00
2023-11-01T08:15:27.777Z,102.70
2023-11-01T08:16:28.310Z,105.10
2023-11-01T08:17:27.931Z,102.60
2023-11-01T08:18:27.811Z,100.00
2023-11-01T08:19:27.743Z,96.70
2023-11-01T08:20:27.773Z,93.80
2023-11-01T08:21:27.760Z,93.00
2023-11-01T08:22:27.714Z,95.90
2023-11-01T08:23:27.699Z,97.20
2023-11-01T08:24:27.712Z,94.10
2023-11-01T08:25:27.704Z,95.80
2023-11-01T08:26:27.733Z,97.30
2023-11-01T08:27:27.655Z,92.80
2023-11-01T08:28:27.632Z,87.30
2023-11-01T08:29:27.730Z,87.30
2023-11-01T08:30:27.642Z,87.70
2023-11-01T08:31:27.660Z,88.40
2023-11-01T08:32:27.669Z,85.30
2023-11-01T08:33:27.718Z,85.40
2023-11-01T08:34:27.586Z,86.40
2023-11-01T08:35:27.632Z,83.70
2023-11-01T08:36:27.584Z,77.40
2023-11-01T08:37:27.542Z,78.00
2023-11-01T08:38:27.584Z,83.00
2023-11-01T08:39:27.564Z,86.50
2023-11-01T08:40:27.552Z,84.60
2023-11-01T08:41:27.536Z,82.00
2023-11-01T08:42:27.491Z,84.30
2023-11-01T08:43:27.518Z,86.00
2023-11-01T08:44:27.552Z,82.00
2023-11-01T08:45:27.482Z,80.50
2023-11-01T08:46:27.466Z,72.90
2023-11-01T08:47:27.486Z,71.30
2023-11-01T08:48:27.550Z,74.10
2023-11-01T08:49:27.461Z,73.30
2023-11-01T08:50:27.419Z,75.10
2023-11-01T08:51:27.414Z,68.70
2023-11-01T08:52:27.387Z,67.30
2023-11-01T08:53:29.367Z,65.00
2023-11-01T08:54:27.385Z,62.90
2023-11-01T08:55:27.399Z,60.70
2023-11-01T08:56:27.395Z,57.30
2023-11-01T08:57:27.346Z,60.80
2023-11-01T08:58:27.358Z,55.10
2023-11-01T08:59:27.338Z,53.20
2023-11-01T09:00:39.173Z,47.70
2023-11-01T09:01:27.328Z,49.20
2023-11-01T09:02:27.416Z,48.00
2023-11-01T09:03:27.401Z,45.10
2023-11-01T09:04:27.316Z,43.30
2023-11-01T09:05:27.284Z,45.30
2023-11-01T09:06:27.254Z,45.30
2023-11-01T09:07:27.268Z,46.60
2023-11-01T09:08:27.268Z,47.30
2023-11-01T09:09:27.215Z,47.70
2023-11-01T09:10:27.237Z,48.60
2023-11-01T09:11:27.217Z,52.60
2023-11-01T09:12:27.258Z,55.30
2023-11-01T09:13:27.173Z,49.80
2023-11-01T09:14:27.201Z,48.00
2023-11-01T09:15:27.159Z,52.50
2023-11-01T09:16:27.143Z,52.80
2023-11-01T09:17:27.228Z,49.70
2023-11-01T09:18:27.196Z,43.60
2023-11-01T09:19:27.115Z,43.20
2023-11-01T09:20:27.166Z,43.70
2023-11-01T09:21:27.098Z,38.70
2023-11-01T09:22:27.089Z,35.70
2023-11-01T09:23:27.071Z,37.60
2023-11-01T09:24:27.066Z,32.40
2023-11-01T09:25:27.071Z,32.60
2023-11-01T09:26:27.089Z,26.70
2023-11-01T09:27:27.086Z,24.20
2023-11-01T09:28:27.021Z,25.70
2023-11-01T09:29:27.061Z,22.60
2023-11-01T09:30:27.021Z,22.40
2023-11-01T09:31:27.046Z,20.20
2023-11-01T09:32:27.024Z,16.90
2023-11-01T09:33:27.074Z,16.60
2023-11-01T09:34:27.018Z,17.60
2023-11-01T09:35:27.050Z,17.20
2023-11-01T09:36:27.046Z,17.70
2023-11-01T09:37:26.923Z,18.00
2023-11-01T09:38:26.941Z,21.20
2023-11-01T09:39:26.952Z,18.60
2023-11-01T09:40:26.964Z,19.70
2023-11-01T09:41:26.934Z,20.10
2023-11-01T09:42:26.909Z,18.40
2023-11-01T09:43:26.872Z,19.50
2023-11-01T09:44:26.891Z,19.70
2023-11-01T09:45:26.926Z,20.00
2023-11-01T09:46:26.864Z,18.40
2023-11-01T09:47:26.989Z,19.80
2023-11-01T09:48:26.888Z,18.70
2023-11-01T09:49:26.862Z,17.00
2023-11-01T09:50:26.860Z,17.30
2023-11-01T09:51:26.836Z,18.00
2023-11-01T09:52:26.781Z,16.90
2023-11-01T09:53:26.780Z,14.60
2023-11-01T09:54:26.777Z,14.10
2023-11-01T09:55:26.781Z,16.20
2023-11-01T09:56:26.754Z,13.90
2023-11-01T09:57:26.721Z,14.70
2023-11-01T09:58:26.772Z,15.20
2023-11-01T09:59:26.748Z,13.30
2023-11-01T10:00:26.686Z,13.80
2023-11-01T10:01:26.701Z,13.30
2023-11-01T10:02:26.746Z,12.10
2023-11-01T10:03:26.841Z,12.80
2023-11-01T10:04:26.729Z,13.70
2023-11-01T10:05:26.674Z,11.00
2023-11-01T10:06:26.621Z,9.20
2023-11-01T10:07:26.617Z,9.00
2023-11-01T10:08:26.655Z,10.90
2023-11-01T10:09:26.583Z,9.30
2023-11-01T10:10:26.608Z,8.70
2023-11-01T10:11:27.925Z,9.60
2023-11-01T10:12:26.570Z,9.30
2023-11-01T10:13:26.618Z,7.90
2023-11-01T10:14:26.577Z,9.90
2023-11-01T10:15:26.604Z,10.10
2023-11-01T10:16:26.519Z,7.50
2023-11-01T10:17:26.574Z,6.00
2023-11-01T10:18:26.564Z,6.90
2023-11-01T10:19:26.540Z,4.20
2023-11-01T10:20:26.591Z,7.10
2023-11-01T10:21:26.478Z,4.60
2023-11-01T10:22:26.480Z,6.70
2023-11-01T10:23:26.514Z,4.20
2023-11-01T10:24:26.437Z,7.40
2023-11-01T10:25:26.924Z,2.30
2023-11-01T10:26:26.434Z,2.80
2023-11-01T10:27:26.460Z,3.20
2023-11-01T10:28:26.464Z,4.50
2023-11-01T10:29:26.459Z,6.00
2023-11-01T10:30:26.410Z,4.70
2023-11-01T10:31:26.442Z,4.60
2023-11-01T10:32:26.544Z,4.30
2023-11-01T10:33:33.971Z,4.10
2023-11-01T10:34:26.327Z,3.20
2023-11-01T10:35:26.354Z,3.20
2023-11-01T10:36:26.329Z,3.40
2023-11-01T10:37:27.150Z,2.90
2023-11-01T10:38:26.360Z,3.90
2023-11-01T10:39:26.303Z,2.60
2023-11-01T10:40:26.290Z,2.70
2023-11-01T10:41:26.506Z,4.50
2023-11-01T10:42:26.429Z,2.90
2023-11-01T10:43:26.489Z,4.10
2023-11-01T10:44:26.626Z,5.20
2023-11-01T10:45:26.238Z,2.40
2023-11-01T10:46:26.269Z,3.00
2023-11-01T10:47:26.263Z,9.50
2023-11-01T10:48:26.262Z,3.00
2023-11-01T10:49:26.192Z,4.00
2023-11-01T10:50:26.248Z,9.60
2023-11-01T10:51:26.306Z,3.90
2023-11-01T10:52:26.231Z,3.20
2023-11-01T10:53:26.264Z,3.50
2023-11-01T10:54:26.513Z,5.90
2023-11-01T10:55:26.174Z,5.20
2023-11-01T10:56:26.250Z,6.40
2023-11-01T10:57:26.126Z,2.10
2023-11-01T10:58:26.094Z,1.80
2023-11-01T10:59:26.140Z,3.50
2023-11-01T11:00:26.099Z,3.10
2023-11-01T11:01:26.068Z,5.70
2023-11-01T11:02:26.067Z,4.00
2023-11-01T11:03:26.227Z,3.80
2023-11-01T11:04:26.242Z,2.40
2023-11-01T11:05:26.115Z,2.30
2023-11-01T11:06:26.040Z,4.10
2023-11-01T11:07:26.001Z,2.80
2023-11-01T11:08:26.022Z,2.50
2023-11-01T11:09:26.034Z,3.00
2023-11-01T11:10:26.010Z,2.80
2023-11-01T11:11:26.007Z,5.40
2023-11-01T11:12:25.983Z,3.00
2023-11-01T11:13:25.934Z,4.00
2023-11-01T11:14:25.999Z,4.40
2023-11-01T11:15:25.960Z,2.30
2023-11-01T11:16:26.208Z,2.00
2023-11-01T11:17:25.917Z,6.10
2023-11-01T11:18:26.219Z,6.00
2023-11-01T11:19:26.001Z,7.60
2023-11-01T11:20:25.917Z,5.00
2023-11-01T11:21:25.937Z,6.40
2023-11-01T11:22:25.926Z,1.90
2023-11-01T11:23:26.124Z,4.40
2023-11-01T11:24:25.917Z,3.40
2023-11-01T11:25:25.835Z,2.70
2023-11-01T11:26:26.053Z,2.30
2023-11-01T11:27:26.151Z,4.70
2023-11-01T11:28:25.842Z,1.90
2023-11-01T11:29:25.869Z,1.90
2023-11-01T11:30:25.773Z,3.00
2023-11-01T11:31:25.874Z,1.70
2023-11-01T11:32:25.805Z,5.70
2023-11-01T11:33:25.995Z,9.10
2023-11-01T11:34:25.865Z,4.00
2023-11-01T11:35:25.743Z,4.30
2023-11-01T11:36:25.718Z,0.90
2023-11-01T11:37:25.772Z,2.40
2023-11-01T11:38:25.760Z,2.90
2023-11-01T11:39:25.725Z,2.00
2023-11-01T11:40:25.739Z,2.30
2023-11-01T11:41:25.704Z,1.90
2023-11-01T11:42:25.685Z,1.80
2023-11-01T11:43:25.946Z,2.10
2023-11-01T11:44:25.755Z,1.10
2023-11-01T11:45:25.627Z,1.30
2023-11-01T11:46:25.639Z,1.70
2023-11-01T11:47:25.665Z,1.30
2023-11-01T11:48:25.699Z,4.80
2023-11-01T11:49:25.590Z,7.70
2023-11-01T11:50:25.582Z,5.40
2023-11-01T11:51:26.075Z,8.70
2023-11-01T11:52:25.632Z,3.10
2023-11-01T11:53:25.529Z,1.30
2023-11-01T11:54:25.520Z,1.60
2023-11-01T11:55:25.625Z,1.80
2023-11-01T11:56:25.512Z,2.60
2023-11-01T11:57:25.512Z,2.50
2023-11-01T11:58:25.536Z,5.30
2023-11-01T11:59:25.492Z,2.60
2023-11-01T12:00:25.504Z,1.10
2023-11-01T12:01:25.609Z,3.20
2023-11-01T12:02:25.428Z,2.50
2023-11-01T12:03:25.578Z,3.30
2023-11-01T12:04:25.454Z,3.20
2023-11-01T12:05:25.436Z,3.80
2023-11-01T12:06:25.398Z,4.10
2023-11-01T12:07:25.425Z,0.50
2023-11-01T12:08:25.407Z,2.90
2023-11-01T12:09:25.355Z,0.50
2023-11-01T12:10:25.377Z,5.60
2023-11-01T12:11:25.415Z,0.70
2023-11-01T12:12:25.589Z,2.40
2023-11-01T12:13:25.362Z,1.20
2023-11-01T12:14:25.341Z,1.50
2023-11-01T12:15:25.556Z,0.90
2023-11-01T12:16:25.310Z,2.30
2023-11-01T12:17:25.329Z,2.10
2023-11-01T12:18:25.320Z,1.00
2023-11-01T12:19:25.282Z,2.20
2023-11-01T12:20:25.256Z,1.00
2023-11-01T12:21:25.307Z,1.00
2023-11-01T12:22:25.232Z,1.10
2023-11-01T12:23:25.295Z,1.50
2023-11-01T12:24:25.252Z,3.50
2023-11-01T12:25:25.239Z,1.80
2023-11-01T12:26:25.392Z,1.30
2023-11-01T12:27:25.322Z,1.70
2023-11-01T12:28:25.226Z,3.60
2023-11-01T12:29:25.199Z,3.90
2023-11-01T12:30:25.333Z,1.20
2023-11-01T12:31:25.144Z,2.00
2023-11-01T12:32:25.150Z,1.20
2023-11-01T12:33:25.366Z,1.90
2023-11-01T12:34:25.357Z,0.50
2023-11-01T12:35:25.300Z,0.90
2023-11-01T12:36:25.125Z,2.80
2023-11-01T12:37:25.186Z,13.70
2023-11-01T12:38:25.424Z,0.80
2023-11-01T12:39:25.060Z,0.40
2023-11-01T12:40:25.085Z,1.30
2023-11-01T12:41:25.082Z,0.90
2023-11-01T12:42:25.135Z,0.30
2023-11-01T12:43:25.281Z,1.20
2023-11-01T12:44:25.075Z,0.40
2023-11-01T12:45:25.123Z,3.40
2023-11-01T12:46:24.989Z,0.60
2023-11-01T12:47:25.012Z,0.80
2023-11-01T12:48:25.044Z,3.30
2023-11-01T12:49:24.952Z,3.00
2023-11-01T12:50:25.172Z,1.30
2023-11-01T12:51:25.077Z,1.80
2023-11-01T12:52:24.970Z,2.20
2023-11-01T12:53:25.101Z,1.50